Terminal Aerodrome Forecast
Issued by NWS

Home | Current Version | Previous Version | Text Only | Print | Product List | Glossary On
Versions: 1 2 3 4 5 6 7 8 9 10 11 12 13 14 15 16 17 18
000
FTUS43 KGRR 240401 AAC
TAFJXN
TAF AMD
KJXN 240401Z 2404/2424 25016G25KT P6SM -RA SCT015 BKN045
     FM241100 23010KT 2SM -SHRA BR OVC008
     FM241500 28015G25KT 4SM SHRA BR OVC015
     FM242100 28015G25KT 2SM -RA BR OVC007=

USA.gov is the U.S. government's official web portal to all federal, state and local government web resources and services.